sensor_id;sensor_type;location;lat;lon;timestamp;P1;durP1;ratioP1;P2;durP2;ratioP2
10934;SDS011;5520;45.752;4.874;2023-04-03T00:00:38;3.13;;;1.43;;
10934;SDS011;5520;45.752;4.874;2023-04-03T00:03:06;1.30;;;1.13;;
10934;SDS011;5520;45.752;4.874;2023-04-03T00:05:34;1.37;;;1.20;;
10934;SDS011;5520;45.752;4.874;2023-04-03T00:08:02;1.40;;;1.07;;
10934;SDS011;5520;45.752;4.874;2023-04-03T00:10:32;1.20;;;1.20;;
10934;SDS011;5520;45.752;4.874;2023-04-03T00:13:00;1.33;;;1.23;;
10934;SDS011;5520;45.752;4.874;2023-04-03T00:15:28;2.13;;;1.20;;
10934;SDS011;5520;45.752;4.874;2023-04-03T00:17:56;2.97;;;1.30;;
10934;SDS011;5520;45.752;4.874;2023-04-03T00:20:25;1.37;;;1.27;;
10934;SDS011;5520;45.752;4.874;2023-04-03T00:22:53;1.20;;;1.20;;
10934;SDS011;5520;45.752;4.874;2023-04-03T00:25:21;0.97;;;0.97;;
10934;SDS011;5520;45.752;4.874;2023-04-03T00:27:51;1.00;;;1.00;;
10934;SDS011;5520;45.752;4.874;2023-04-03T00:30:20;0.83;;;0.83;;
10934;SDS011;5520;45.752;4.874;2023-04-03T00:32:48;2.90;;;1.10;;
10934;SDS011;5520;45.752;4.874;2023-04-03T00:35:16;1.30;;;1.20;;
10934;SDS011;5520;45.752;4.874;2023-04-03T00:37:45;2.03;;;1.07;;
10934;SDS011;5520;45.752;4.874;2023-04-03T00:40:13;5.07;;;1.10;;
10934;SDS011;5520;45.752;4.874;2023-04-03T00:42:42;0.90;;;0.90;;
10934;SDS011;5520;45.752;4.874;2023-04-03T00:47:57;1.83;;;1.00;;
10934;SDS011;5520;45.752;4.874;2023-04-03T00:50:27;1.40;;;0.77;;
10934;SDS011;5520;45.752;4.874;2023-04-03T00:52:56;0.80;;;0.80;;
10934;SDS011;5520;45.752;4.874;2023-04-03T00:55:24;0.83;;;0.83;;
10934;SDS011;5520;45.752;4.874;2023-04-03T00:57:52;0.73;;;0.73;;
10934;SDS011;5520;45.752;4.874;2023-04-03T01:00:21;0.63;;;0.63;;
10934;SDS011;5520;45.752;4.874;2023-04-03T01:02:50;46.57;;;26.27;;
10934;SDS011;5520;45.752;4.874;2023-04-03T01:05:20;14.43;;;9.33;;
10934;SDS011;5520;45.752;4.874;2023-04-03T01:07:48;4.10;;;1.27;;
10934;SDS011;5520;45.752;4.874;2023-04-03T01:10:19;0.80;;;0.77;;
10934;SDS011;5520;45.752;4.874;2023-04-03T01:12:48;1.30;;;0.70;;
10934;SDS011;5520;45.752;4.874;2023-04-03T01:15:18;1.50;;;1.00;;
10934;SDS011;5520;45.752;4.874;2023-04-03T01:17:47;0.73;;;0.73;;
10934;SDS011;5520;45.752;4.874;2023-04-03T01:20:30;0.70;;;0.70;;
10934;SDS011;5520;45.752;4.874;2023-04-03T01:23:06;0.63;;;0.63;;
10934;SDS011;5520;45.752;4.874;2023-04-03T01:25:40;0.77;;;0.77;;
10934;SDS011;5520;45.752;4.874;2023-04-03T01:28:10;1.77;;;0.70;;
10934;SDS011;5520;45.752;4.874;2023-04-03T01:30:40;0.67;;;0.67;;
10934;SDS011;5520;45.752;4.874;2023-04-03T01:33:12;0.67;;;0.67;;
10934;SDS011;5520;45.752;4.874;2023-04-03T01:35:40;1.70;;;0.80;;
10934;SDS011;5520;45.752;4.874;2023-04-03T01:38:09;1.00;;;0.70;;
10934;SDS011;5520;45.752;4.874;2023-04-03T01:40:37;0.93;;;0.93;;
10934;SDS011;5520;45.752;4.874;2023-04-03T01:43:05;2.63;;;0.80;;
10934;SDS011;5520;45.752;4.874;2023-04-03T01:45:33;0.60;;;0.60;;
10934;SDS011;5520;45.752;4.874;2023-04-03T01:48:01;1.80;;;0.70;;
10934;SDS011;5520;45.752;4.874;2023-04-03T01:50:31;0.90;;;0.90;;
10934;SDS011;5520;45.752;4.874;2023-04-03T01:53:00;0.70;;;0.70;;
10934;SDS011;5520;45.752;4.874;2023-04-03T01:55:27;1.33;;;0.63;;
10934;SDS011;5520;45.752;4.874;2023-04-03T01:57:55;0.60;;;0.60;;
10934;SDS011;5520;45.752;4.874;2023-04-03T02:00:23;1.07;;;0.60;;
10934;SDS011;5520;45.752;4.874;2023-04-03T02:02:53;2.33;;;0.60;;
10934;SDS011;5520;45.752;4.874;2023-04-03T02:05:21;1.17;;;0.80;;
10934;SDS011;5520;45.752;4.874;2023-04-03T02:07:50;0.70;;;0.70;;
10934;SDS011;5520;45.752;4.874;2023-04-03T02:10:18;0.60;;;0.60;;
10934;SDS011;5520;45.752;4.874;2023-04-03T02:12:46;1.33;;;0.77;;
10934;SDS011;5520;45.752;4.874;2023-04-03T02:15:14;1.07;;;0.70;;
10934;SDS011;5520;45.752;4.874;2023-04-03T02:17:42;0.60;;;0.60;;
10934;SDS011;5520;45.752;4.874;2023-04-03T02:20:10;1.03;;;0.93;;
10934;SDS011;5520;45.752;4.874;2023-04-03T02:22:38;1.47;;;0.70;;
10934;SDS011;5520;45.752;4.874;2023-04-03T02:25:08;1.47;;;1.00;;
10934;SDS011;5520;45.752;4.874;2023-04-03T02:27:36;0.80;;;0.80;;
10934;SDS011;5520;45.752;4.874;2023-04-03T02:30:05;0.83;;;0.83;;
10934;SDS011;5520;45.752;4.874;2023-04-03T02:32:33;0.70;;;0.70;;
10934;SDS011;5520;45.752;4.874;2023-04-03T02:35:01;0.90;;;0.90;;
10934;SDS011;5520;45.752;4.874;2023-04-03T02:37:29;1.87;;;0.90;;
10934;SDS011;5520;45.752;4.874;2023-04-03T02:39:57;0.70;;;0.70;;
10934;SDS011;5520;45.752;4.874;2023-04-03T02:42:27;0.70;;;0.70;;
10934;SDS011;5520;45.752;4.874;2023-04-03T02:44:55;0.77;;;0.77;;
10934;SDS011;5520;45.752;4.874;2023-04-03T02:47:25;1.23;;;0.70;;
10934;SDS011;5520;45.752;4.874;2023-04-03T02:49:54;4.57;;;0.90;;
10934;SDS011;5520;45.752;4.874;2023-04-03T02:52:22;0.83;;;0.60;;
10934;SDS011;5520;45.752;4.874;2023-04-03T02:54:50;0.80;;;0.80;;
10934;SDS011;5520;45.752;4.874;2023-04-03T02:57:17;1.07;;;1.07;;
10934;SDS011;5520;45.752;4.874;2023-04-03T02:59:47;0.67;;;0.67;;
10934;SDS011;5520;45.752;4.874;2023-04-03T03:02:15;0.80;;;0.80;;
10934;SDS011;5520;45.752;4.874;2023-04-03T03:04:43;0.90;;;0.90;;
10934;SDS011;5520;45.752;4.874;2023-04-03T03:07:11;1.03;;;1.03;;
10934;SDS011;5520;45.752;4.874;2023-04-03T03:09:39;1.00;;;1.00;;
10934;SDS011;5520;45.752;4.874;2023-04-03T03:12:07;4.23;;;1.00;;
10934;SDS011;5520;45.752;4.874;2023-04-03T03:14:35;1.00;;;1.00;;
10934;SDS011;5520;45.752;4.874;2023-04-03T03:17:04;0.90;;;0.90;;
10934;SDS011;5520;45.752;4.874;2023-04-03T03:19:32;0.90;;;0.90;;
10934;SDS011;5520;45.752;4.874;2023-04-03T03:22:00;1.00;;;1.00;;
10934;SDS011;5520;45.752;4.874;2023-04-03T03:24:28;1.80;;;1.13;;
10934;SDS011;5520;45.752;4.874;2023-04-03T03:26:56;1.50;;;1.20;;
10934;SDS011;5520;45.752;4.874;2023-04-03T03:29:24;1.23;;;1.17;;
10934;SDS011;5520;45.752;4.874;2023-04-03T03:31:52;1.37;;;1.27;;
10934;SDS011;5520;45.752;4.874;2023-04-03T03:34:22;1.73;;;1.40;;
10934;SDS011;5520;45.752;4.874;2023-04-03T03:36:50;1.53;;;1.37;;
10934;SDS011;5520;45.752;4.874;2023-04-03T03:39:18;1.60;;;1.50;;
10934;SDS011;5520;45.752;4.874;2023-04-03T03:41:46;1.60;;;1.50;;
10934;SDS011;5520;45.752;4.874;2023-04-03T03:44:16;1.50;;;1.40;;
10934;SDS011;5520;45.752;4.874;2023-04-03T03:46:44;1.53;;;1.43;;
10934;SDS011;5520;45.752;4.874;2023-04-03T03:49:12;1.50;;;1.40;;
10934;SDS011;5520;45.752;4.874;2023-04-03T03:51:41;1.50;;;1.40;;
10934;SDS011;5520;45.752;4.874;2023-04-03T03:54:09;1.90;;;1.80;;
10934;SDS011;5520;45.752;4.874;2023-04-03T03:56:37;2.17;;;1.53;;
10934;SDS011;5520;45.752;4.874;2023-04-03T03:59:05;2.00;;;1.80;;
10934;SDS011;5520;45.752;4.874;2023-04-03T04:01:33;1.97;;;1.87;;
10934;SDS011;5520;45.752;4.874;2023-04-03T04:04:01;4.40;;;2.43;;
10934;SDS011;5520;45.752;4.874;2023-04-03T04:06:29;4.60;;;2.30;;
10934;SDS011;5520;45.752;4.874;2023-04-03T04:08:58;1.90;;;1.80;;
10934;SDS011;5520;45.752;4.874;2023-04-03T04:11:26;4.87;;;1.90;;
10934;SDS011;5520;45.752;4.874;2023-04-03T04:13:54;2.00;;;1.90;;
10934;SDS011;5520;45.752;4.874;2023-04-03T04:16:22;3.43;;;2.17;;
10934;SDS011;5520;45.752;4.874;2023-04-03T04:18:50;2.67;;;1.80;;
10934;SDS011;5520;45.752;4.874;2023-04-03T04:21:18;1.90;;;1.70;;
10934;SDS011;5520;45.752;4.874;2023-04-03T04:23:46;1.80;;;1.70;;
10934;SDS011;5520;45.752;4.874;2023-04-03T04:26:16;2.33;;;2.13;;
10934;SDS011;5520;45.752;4.874;2023-04-03T04:28:44;2.97;;;2.33;;
10934;SDS011;5520;45.752;4.874;2023-04-03T04:31:12;2.60;;;2.40;;
10934;SDS011;5520;45.752;4.874;2023-04-03T04:33:40;2.20;;;2.00;;
10934;SDS011;5520;45.752;4.874;2023-04-03T04:36:08;3.97;;;2.77;;
10934;SDS011;5520;45.752;4.874;2023-04-03T04:38:36;2.97;;;2.17;;
10934;SDS011;5520;45.752;4.874;2023-04-03T04:41:04;2.63;;;2.43;;
10934;SDS011;5520;45.752;4.874;2023-04-03T04:43:34;2.70;;;2.50;;
10934;SDS011;5520;45.752;4.874;2023-04-03T04:46:03;3.23;;;2.93;;
10934;SDS011;5520;45.752;4.874;2023-04-03T04:48:31;3.90;;;2.67;;
10934;SDS011;5520;45.752;4.874;2023-04-03T04:50:59;3.90;;;2.77;;
10934;SDS011;5520;45.752;4.874;2023-04-03T04:53:27;3.47;;;3.03;;
10934;SDS011;5520;45.752;4.874;2023-04-03T04:55:55;3.00;;;2.80;;
10934;SDS011;5520;45.752;4.874;2023-04-03T04:58:23;3.33;;;2.83;;
10934;SDS011;5520;45.752;4.874;2023-04-03T05:00:58;3.93;;;2.87;;
10934;SDS011;5520;45.752;4.874;2023-04-03T05:03:27;3.77;;;3.23;;
10934;SDS011;5520;45.752;4.874;2023-04-03T05:05:55;3.20;;;2.93;;
10934;SDS011;5520;45.752;4.874;2023-04-03T05:08:23;4.00;;;3.37;;
10934;SDS011;5520;45.752;4.874;2023-04-03T05:10:51;3.27;;;2.80;;
10934;SDS011;5520;45.752;4.874;2023-04-03T05:13:21;3.53;;;3.23;;
10934;SDS011;5520;45.752;4.874;2023-04-03T05:15:49;3.83;;;3.43;;
10934;SDS011;5520;45.752;4.874;2023-04-03T05:18:18;3.47;;;3.17;;
10934;SDS011;5520;45.752;4.874;2023-04-03T05:20:47;3.23;;;2.93;;
10934;SDS011;5520;45.752;4.874;2023-04-03T05:23:15;5.20;;;3.70;;
10934;SDS011;5520;45.752;4.874;2023-04-03T05:25:43;4.47;;;3.70;;
10934;SDS011;5520;45.752;4.874;2023-04-03T05:28:13;5.43;;;3.50;;
10934;SDS011;5520;45.752;4.874;2023-04-03T05:30:41;5.67;;;4.30;;
10934;SDS011;5520;45.752;4.874;2023-04-03T05:33:09;5.03;;;4.10;;
10934;SDS011;5520;45.752;4.874;2023-04-03T05:35:39;5.77;;;3.73;;
10934;SDS011;5520;45.752;4.874;2023-04-03T05:38:08;4.33;;;3.90;;
10934;SDS011;5520;45.752;4.874;2023-04-03T05:40:36;4.77;;;4.27;;
10934;SDS011;5520;45.752;4.874;2023-04-03T05:43:04;4.73;;;4.23;;
10934;SDS011;5520;45.752;4.874;2023-04-03T05:45:32;5.53;;;4.17;;
10934;SDS011;5520;45.752;4.874;2023-04-03T05:48:00;7.47;;;4.73;;
10934;SDS011;5520;45.752;4.874;2023-04-03T05:50:29;7.97;;;5.30;;
10934;SDS011;5520;45.752;4.874;2023-04-03T05:52:59;6.83;;;5.20;;
10934;SDS011;5520;45.752;4.874;2023-04-03T05:55:27;7.90;;;6.03;;
10934;SDS011;5520;45.752;4.874;2023-04-03T05:57:55;9.60;;;6.77;;
10934;SDS011;5520;45.752;4.874;2023-04-03T06:00:23;10.70;;;8.37;;
10934;SDS011;5520;45.752;4.874;2023-04-03T06:02:51;10.03;;;6.37;;
10934;SDS011;5520;45.752;4.874;2023-04-03T06:05:19;10.53;;;7.90;;
10934;SDS011;5520;45.752;4.874;2023-04-03T06:07:48;9.07;;;7.17;;
10934;SDS011;5520;45.752;4.874;2023-04-03T06:10:18;10.67;;;6.97;;
10934;SDS011;5520;45.752;4.874;2023-04-03T06:12:46;9.03;;;6.93;;
10934;SDS011;5520;45.752;4.874;2023-04-03T06:15:15;7.47;;;6.10;;
10934;SDS011;5520;45.752;4.874;2023-04-03T06:17:43;7.23;;;6.23;;
10934;SDS011;5520;45.752;4.874;2023-04-03T06:20:12;9.07;;;6.17;;
10934;SDS011;5520;45.752;4.874;2023-04-03T06:22:40;8.87;;;6.50;;
10934;SDS011;5520;45.752;4.874;2023-04-03T06:25:09;6.57;;;5.67;;
10934;SDS011;5520;45.752;4.874;2023-04-03T06:27:38;7.37;;;6.00;;
10934;SDS011;5520;45.752;4.874;2023-04-03T06:30:07;9.07;;;6.23;;
10934;SDS011;5520;45.752;4.874;2023-04-03T06:32:35;6.30;;;5.57;;
10934;SDS011;5520;45.752;4.874;2023-04-03T06:35:04;8.53;;;6.43;;
10934;SDS011;5520;45.752;4.874;2023-04-03T06:37:33;6.03;;;5.30;;
10934;SDS011;5520;45.752;4.874;2023-04-03T06:40:01;6.33;;;5.70;;
10934;SDS011;5520;45.752;4.874;2023-04-03T06:42:31;8.43;;;6.37;;
10934;SDS011;5520;45.752;4.874;2023-04-03T06:45:00;13.60;;;7.73;;
10934;SDS011;5520;45.752;4.874;2023-04-03T06:47:28;6.70;;;4.97;;
10934;SDS011;5520;45.752;4.874;2023-04-03T06:49:56;7.77;;;5.57;;
10934;SDS011;5520;45.752;4.874;2023-04-03T06:52:25;8.93;;;6.10;;
10934;SDS011;5520;45.752;4.874;2023-04-03T06:54:53;8.90;;;6.10;;
10934;SDS011;5520;45.752;4.874;2023-04-03T06:57:24;9.10;;;5.93;;
10934;SDS011;5520;45.752;4.874;2023-04-03T06:59:54;7.13;;;5.73;;
10934;SDS011;5520;45.752;4.874;2023-04-03T07:02:24;8.17;;;6.87;;
10934;SDS011;5520;45.752;4.874;2023-04-03T07:04:53;9.37;;;6.03;;
10934;SDS011;5520;45.752;4.874;2023-04-03T07:07:21;7.47;;;5.73;;
10934;SDS011;5520;45.752;4.874;2023-04-03T07:09:50;5.10;;;4.60;;
10934;SDS011;5520;45.752;4.874;2023-04-03T07:12:18;7.70;;;5.57;;
10934;SDS011;5520;45.752;4.874;2023-04-03T07:14:46;6.37;;;5.43;;
10934;SDS011;5520;45.752;4.874;2023-04-03T07:17:14;6.83;;;5.10;;
10934;SDS011;5520;45.752;4.874;2023-04-03T07:19:44;6.97;;;5.37;;
10934;SDS011;5520;45.752;4.874;2023-04-03T07:22:12;8.40;;;6.53;;
10934;SDS011;5520;45.752;4.874;2023-04-03T07:24:40;7.67;;;5.37;;
10934;SDS011;5520;45.752;4.874;2023-04-03T07:27:08;9.73;;;6.37;;
10934;SDS011;5520;45.752;4.874;2023-04-03T07:29:37;9.60;;;5.27;;
10934;SDS011;5520;45.752;4.874;2023-04-03T07:32:05;6.37;;;5.17;;
10934;SDS011;5520;45.752;4.874;2023-04-03T07:34:33;10.07;;;6.77;;
10934;SDS011;5520;45.752;4.874;2023-04-03T07:37:03;9.90;;;6.23;;
10934;SDS011;5520;45.752;4.874;2023-04-03T07:39:31;8.37;;;6.33;;
10934;SDS011;5520;45.752;4.874;2023-04-03T07:41:59;8.83;;;6.57;;
10934;SDS011;5520;45.752;4.874;2023-04-03T07:44:28;10.77;;;8.20;;
10934;SDS011;5520;45.752;4.874;2023-04-03T07:46:56;9.70;;;7.03;;
10934;SDS011;5520;45.752;4.874;2023-04-03T07:49:24;9.30;;;6.03;;
10934;SDS011;5520;45.752;4.874;2023-04-03T07:51:52;9.27;;;6.00;;
10934;SDS011;5520;45.752;4.874;2023-04-03T07:54:22;9.10;;;6.93;;
10934;SDS011;5520;45.752;4.874;2023-04-03T07:56:50;9.57;;;6.43;;
10934;SDS011;5520;45.752;4.874;2023-04-03T07:59:18;12.70;;;6.20;;
10934;SDS011;5520;45.752;4.874;2023-04-03T08:01:48;16.97;;;7.30;;
10934;SDS011;5520;45.752;4.874;2023-04-03T08:04:17;7.67;;;5.67;;
10934;SDS011;5520;45.752;4.874;2023-04-03T08:06:45;7.93;;;6.10;;
10934;SDS011;5520;45.752;4.874;2023-04-03T08:09:13;8.83;;;6.70;;
10934;SDS011;5520;45.752;4.874;2023-04-03T08:11:44;10.20;;;6.07;;
10934;SDS011;5520;45.752;4.874;2023-04-03T08:14:13;10.53;;;5.50;;
10934;SDS011;5520;45.752;4.874;2023-04-03T08:16:45;8.33;;;5.80;;
10934;SDS011;5520;45.752;4.874;2023-04-03T08:19:14;8.03;;;5.90;;
10934;SDS011;5520;45.752;4.874;2023-04-03T08:21:51;7.27;;;5.23;;
10934;SDS011;5520;45.752;4.874;2023-04-03T08:24:19;7.93;;;5.80;;
10934;SDS011;5520;45.752;4.874;2023-04-03T08:26:49;5.93;;;4.80;;
10934;SDS011;5520;45.752;4.874;2023-04-03T08:29:17;7.27;;;5.47;;
10934;SDS011;5520;45.752;4.874;2023-04-03T08:31:45;7.93;;;6.20;;
10934;SDS011;5520;45.752;4.874;2023-04-03T08:34:14;6.57;;;5.33;;
10934;SDS011;5520;45.752;4.874;2023-04-03T08:36:42;7.07;;;4.87;;
10934;SDS011;5520;45.752;4.874;2023-04-03T08:39:10;7.40;;;4.77;;
10934;SDS011;5520;45.752;4.874;2023-04-03T08:41:40;8.47;;;5.23;;
10934;SDS011;5520;45.752;4.874;2023-04-03T08:44:15;6.20;;;4.63;;
10934;SDS011;5520;45.752;4.874;2023-04-03T08:46:48;6.87;;;4.80;;
10934;SDS011;5520;45.752;4.874;2023-04-03T08:49:22;6.97;;;4.93;;
10934;SDS011;5520;45.752;4.874;2023-04-03T08:51:51;6.57;;;5.47;;
10934;SDS011;5520;45.752;4.874;2023-04-03T08:54:28;7.47;;;4.87;;
10934;SDS011;5520;45.752;4.874;2023-04-03T08:57:01;9.13;;;5.90;;
10934;SDS011;5520;45.752;4.874;2023-04-03T08:59:32;8.67;;;5.33;;
10934;SDS011;5520;45.752;4.874;2023-04-03T09:02:02;9.37;;;5.07;;
10934;SDS011;5520;45.752;4.874;2023-04-03T09:04:33;8.23;;;6.37;;
10934;SDS011;5520;45.752;4.874;2023-04-03T09:07:03;8.00;;;4.87;;
10934;SDS011;5520;45.752;4.874;2023-04-03T09:09:35;9.37;;;5.80;;
10934;SDS011;5520;45.752;4.874;2023-04-03T09:12:11;10.13;;;6.00;;
10934;SDS011;5520;45.752;4.874;2023-04-03T09:14:45;6.97;;;5.40;;
10934;SDS011;5520;45.752;4.874;2023-04-03T09:17:16;7.17;;;5.00;;
10934;SDS011;5520;45.752;4.874;2023-04-03T09:19:50;6.47;;;5.10;;
10934;SDS011;5520;45.752;4.874;2023-04-03T09:22:20;7.83;;;5.87;;
10934;SDS011;5520;45.752;4.874;2023-04-03T09:24:50;5.97;;;4.90;;
10934;SDS011;5520;45.752;4.874;2023-04-03T09:27:20;7.50;;;5.20;;
10934;SDS011;5520;45.752;4.874;2023-04-03T09:29:52;8.60;;;5.70;;
10934;SDS011;5520;45.752;4.874;2023-04-03T09:32:28;8.00;;;5.77;;
10934;SDS011;5520;45.752;4.874;2023-04-03T09:34:58;12.00;;;7.07;;
10934;SDS011;5520;45.752;4.874;2023-04-03T09:37:40;8.87;;;7.20;;
10934;SDS011;5520;45.752;4.874;2023-04-03T09:40:31;8.93;;;6.77;;
10934;SDS011;5520;45.752;4.874;2023-04-03T09:43:03;8.60;;;6.93;;
10934;SDS011;5520;45.752;4.874;2023-04-03T09:45:47;8.50;;;6.23;;
10934;SDS011;5520;45.752;4.874;2023-04-03T09:48:17;7.03;;;6.33;;
10934;SDS011;5520;45.752;4.874;2023-04-03T09:50:52;6.77;;;5.23;;
10934;SDS011;5520;45.752;4.874;2023-04-03T09:53:26;5.83;;;4.93;;
10934;SDS011;5520;45.752;4.874;2023-04-03T09:55:54;8.60;;;5.10;;
10934;SDS011;5520;45.752;4.874;2023-04-03T09:58:23;8.17;;;5.57;;
10934;SDS011;5520;45.752;4.874;2023-04-03T10:01:00;8.50;;;6.10;;
10934;SDS011;5520;45.752;4.874;2023-04-03T10:03:29;9.03;;;7.20;;
10934;SDS011;5520;45.752;4.874;2023-04-03T10:06:00;7.73;;;6.60;;
10934;SDS011;5520;45.752;4.874;2023-04-03T10:08:29;7.83;;;6.37;;
10934;SDS011;5520;45.752;4.874;2023-04-03T10:11:10;7.63;;;6.30;;
10934;SDS011;5520;45.752;4.874;2023-04-03T10:13:55;8.50;;;5.93;;
10934;SDS011;5520;45.752;4.874;2023-04-03T10:16:28;9.03;;;5.80;;
10934;SDS011;5520;45.752;4.874;2023-04-03T10:21:40;7.87;;;6.10;;
10934;SDS011;5520;45.752;4.874;2023-04-03T10:24:13;8.20;;;5.83;;
10934;SDS011;5520;45.752;4.874;2023-04-03T10:26:45;7.80;;;5.33;;
10934;SDS011;5520;45.752;4.874;2023-04-03T10:29:16;7.07;;;5.63;;
10934;SDS011;5520;45.752;4.874;2023-04-03T10:31:51;5.67;;;5.17;;
10934;SDS011;5520;45.752;4.874;2023-04-03T10:34:21;6.40;;;5.27;;
10934;SDS011;5520;45.752;4.874;2023-04-03T10:36:52;7.10;;;4.50;;
10934;SDS011;5520;45.752;4.874;2023-04-03T10:39:23;7.47;;;3.97;;
10934;SDS011;5520;45.752;4.874;2023-04-03T10:41:57;4.67;;;4.13;;
10934;SDS011;5520;45.752;4.874;2023-04-03T10:44:46;5.37;;;4.60;;
10934;SDS011;5520;45.752;4.874;2023-04-03T10:47:20;5.70;;;5.10;;
10934;SDS011;5520;45.752;4.874;2023-04-03T10:49:51;6.87;;;5.23;;
10934;SDS011;5520;45.752;4.874;2023-04-03T10:52:27;6.17;;;4.73;;
10934;SDS011;5520;45.752;4.874;2023-04-03T10:55:01;9.80;;;5.27;;
10934;SDS011;5520;45.752;4.874;2023-04-03T10:57:30;5.20;;;4.53;;
10934;SDS011;5520;45.752;4.874;2023-04-03T10:59:59;6.53;;;5.20;;
10934;SDS011;5520;45.752;4.874;2023-04-03T11:02:30;7.40;;;5.13;;
10934;SDS011;5520;45.752;4.874;2023-04-03T11:05:01;6.20;;;5.13;;
10934;SDS011;5520;45.752;4.874;2023-04-03T11:07:32;5.80;;;5.27;;
10934;SDS011;5520;45.752;4.874;2023-04-03T11:10:02;5.40;;;4.50;;
10934;SDS011;5520;45.752;4.874;2023-04-03T11:12:33;6.00;;;4.40;;
10934;SDS011;5520;45.752;4.874;2023-04-03T11:15:04;5.80;;;5.10;;
10934;SDS011;5520;45.752;4.874;2023-04-03T11:17:35;6.50;;;5.23;;
10934;SDS011;5520;45.752;4.874;2023-04-03T11:20:08;5.43;;;4.37;;
10934;SDS011;5520;45.752;4.874;2023-04-03T11:22:38;4.83;;;4.33;;
10934;SDS011;5520;45.752;4.874;2023-04-03T11:25:14;9.17;;;4.20;;
10934;SDS011;5520;45.752;4.874;2023-04-03T11:27:47;5.00;;;4.50;;
10934;SDS011;5520;45.752;4.874;2023-04-03T11:30:19;5.10;;;4.60;;
10934;SDS011;5520;45.752;4.874;2023-04-03T11:35:38;5.50;;;4.57;;
10934;SDS011;5520;45.752;4.874;2023-04-03T11:38:10;5.97;;;4.20;;
10934;SDS011;5520;45.752;4.874;2023-04-03T11:40:42;4.67;;;3.27;;
10934;SDS011;5520;45.752;4.874;2023-04-03T11:43:18;4.57;;;4.00;;
10934;SDS011;5520;45.752;4.874;2023-04-03T11:45:55;5.40;;;4.67;;
10934;SDS011;5520;45.752;4.874;2023-04-03T11:48:48;5.83;;;4.57;;
10934;SDS011;5520;45.752;4.874;2023-04-03T11:59:59;4.27;;;3.57;;
10934;SDS011;5520;45.752;4.874;2023-04-03T12:02:36;5.17;;;3.63;;
10934;SDS011;5520;45.752;4.874;2023-04-03T12:05:24;5.73;;;3.37;;
10934;SDS011;5520;45.752;4.874;2023-04-03T12:10:35;3.57;;;3.27;;
10934;SDS011;5520;45.752;4.874;2023-04-03T12:13:12;5.97;;;3.80;;
10934;SDS011;5520;45.752;4.874;2023-04-03T12:15:49;4.17;;;3.57;;
10934;SDS011;5520;45.752;4.874;2023-04-03T12:21:17;7.33;;;3.40;;
10934;SDS011;5520;45.752;4.874;2023-04-03T12:24:01;3.43;;;3.13;;
10934;SDS011;5520;45.752;4.874;2023-04-03T12:26:31;3.63;;;3.10;;
10934;SDS011;5520;45.752;4.874;2023-04-03T12:29:14;4.33;;;3.57;;
10934;SDS011;5520;45.752;4.874;2023-04-03T12:31:48;4.23;;;3.83;;
10934;SDS011;5520;45.752;4.874;2023-04-03T12:34:24;4.40;;;3.50;;
10934;SDS011;5520;45.752;4.874;2023-04-03T12:36:58;4.43;;;3.33;;
10934;SDS011;5520;45.752;4.874;2023-04-03T12:39:41;3.77;;;3.27;;
10934;SDS011;5520;45.752;4.874;2023-04-03T12:42:20;3.73;;;3.23;;
10934;SDS011;5520;45.752;4.874;2023-04-03T12:44:54;3.90;;;3.60;;
10934;SDS011;5520;45.752;4.874;2023-04-03T12:47:28;4.97;;;3.47;;
10934;SDS011;5520;45.752;4.874;2023-04-03T12:49:59;5.57;;;3.17;;
10934;SDS011;5520;45.752;4.874;2023-04-03T12:52:31;3.90;;;3.43;;
10934;SDS011;5520;45.752;4.874;2023-04-03T12:55:00;3.77;;;3.37;;
10934;SDS011;5520;45.752;4.874;2023-04-03T12:57:30;3.77;;;3.47;;
10934;SDS011;5520;45.752;4.874;2023-04-03T12:59:59;3.53;;;2.97;;
10934;SDS011;5520;45.752;4.874;2023-04-03T13:02:29;4.33;;;3.50;;
10934;SDS011;5520;45.752;4.874;2023-04-03T13:04:58;4.80;;;3.33;;
10934;SDS011;5520;45.752;4.874;2023-04-03T13:07:28;4.23;;;3.10;;
10934;SDS011;5520;45.752;4.874;2023-04-03T13:09:59;2.80;;;2.60;;
10934;SDS011;5520;45.752;4.874;2023-04-03T13:12:27;3.40;;;3.10;;
10934;SDS011;5520;45.752;4.874;2023-04-03T13:14:58;4.43;;;3.53;;
10934;SDS011;5520;45.752;4.874;2023-04-03T13:17:27;3.20;;;3.00;;
10934;SDS011;5520;45.752;4.874;2023-04-03T13:19:56;3.07;;;2.67;;
10934;SDS011;5520;45.752;4.874;2023-04-03T13:22:37;4.23;;;3.10;;
10934;SDS011;5520;45.752;4.874;2023-04-03T13:25:10;2.67;;;2.47;;
10934;SDS011;5520;45.752;4.874;2023-04-03T13:27:40;3.50;;;2.60;;
10934;SDS011;5520;45.752;4.874;2023-04-03T13:30:27;5.13;;;3.10;;
10934;SDS011;5520;45.752;4.874;2023-04-03T13:32:56;2.97;;;2.57;;
10934;SDS011;5520;45.752;4.874;2023-04-03T13:35:28;2.80;;;2.60;;
10934;SDS011;5520;45.752;4.874;2023-04-03T13:37:58;3.47;;;3.13;;
10934;SDS011;5520;45.752;4.874;2023-04-03T13:40:27;7.20;;;3.90;;
10934;SDS011;5520;45.752;4.874;2023-04-03T13:43:16;2.73;;;2.53;;
10934;SDS011;5520;45.752;4.874;2023-04-03T13:45:53;2.70;;;2.50;;
10934;SDS011;5520;45.752;4.874;2023-04-03T13:48:22;2.90;;;2.70;;
10934;SDS011;5520;45.752;4.874;2023-04-03T13:50:53;2.60;;;2.40;;
10934;SDS011;5520;45.752;4.874;2023-04-03T13:53:21;2.77;;;2.57;;
10934;SDS011;5520;45.752;4.874;2023-04-03T13:55:57;4.77;;;3.77;;
10934;SDS011;5520;45.752;4.874;2023-04-03T13:58:26;3.40;;;3.10;;
10934;SDS011;5520;45.752;4.874;2023-04-03T14:00:55;3.53;;;3.13;;
10934;SDS011;5520;45.752;4.874;2023-04-03T14:03:24;3.87;;;2.90;;
10934;SDS011;5520;45.752;4.874;2023-04-03T14:05:54;2.60;;;2.40;;
10934;SDS011;5520;45.752;4.874;2023-04-03T14:08:22;2.53;;;2.40;;
10934;SDS011;5520;45.752;4.874;2023-04-03T14:11:09;2.93;;;2.53;;
10934;SDS011;5520;45.752;4.874;2023-04-03T14:13:39;2.77;;;2.57;;
10934;SDS011;5520;45.752;4.874;2023-04-03T14:16:07;4.00;;;2.67;;
10934;SDS011;5520;45.752;4.874;2023-04-03T14:18:41;3.00;;;2.47;;
10934;SDS011;5520;45.752;4.874;2023-04-03T14:21:12;2.60;;;2.40;;
10934;SDS011;5520;45.752;4.874;2023-04-03T14:23:41;4.77;;;2.80;;
10934;SDS011;5520;45.752;4.874;2023-04-03T14:26:10;3.13;;;2.30;;
10934;SDS011;5520;45.752;4.874;2023-04-03T14:28:39;3.37;;;2.70;;
10934;SDS011;5520;45.752;4.874;2023-04-03T14:31:10;4.10;;;2.33;;
10934;SDS011;5520;45.752;4.874;2023-04-03T14:33:38;2.63;;;2.43;;
10934;SDS011;5520;45.752;4.874;2023-04-03T14:36:11;2.53;;;2.33;;
10934;SDS011;5520;45.752;4.874;2023-04-03T14:38:40;4.43;;;2.77;;
10934;SDS011;5520;45.752;4.874;2023-04-03T14:41:10;2.90;;;2.40;;
10934;SDS011;5520;45.752;4.874;2023-04-03T14:43:42;3.03;;;2.57;;
10934;SDS011;5520;45.752;4.874;2023-04-03T14:46:12;2.27;;;2.07;;
10934;SDS011;5520;45.752;4.874;2023-04-03T14:48:40;2.30;;;2.10;;
10934;SDS011;5520;45.752;4.874;2023-04-03T14:51:09;2.80;;;2.60;;
10934;SDS011;5520;45.752;4.874;2023-04-03T14:53:39;2.73;;;2.27;;
10934;SDS011;5520;45.752;4.874;2023-04-03T14:56:12;2.53;;;2.33;;
10934;SDS011;5520;45.752;4.874;2023-04-03T14:58:40;2.20;;;2.00;;
10934;SDS011;5520;45.752;4.874;2023-04-03T15:01:09;2.97;;;2.13;;
10934;SDS011;5520;45.752;4.874;2023-04-03T15:03:38;2.40;;;2.20;;
10934;SDS011;5520;45.752;4.874;2023-04-03T15:06:08;2.40;;;2.20;;
10934;SDS011;5520;45.752;4.874;2023-04-03T15:08:36;2.57;;;2.37;;
10934;SDS011;5520;45.752;4.874;2023-04-03T15:11:05;2.47;;;2.23;;
10934;SDS011;5520;45.752;4.874;2023-04-03T15:13:33;3.07;;;2.83;;
10934;SDS011;5520;45.752;4.874;2023-04-03T15:16:02;2.80;;;2.60;;
10934;SDS011;5520;45.752;4.874;2023-04-03T15:18:31;2.23;;;2.03;;
10934;SDS011;5520;45.752;4.874;2023-04-03T15:21:00;4.23;;;2.30;;
10934;SDS011;5520;45.752;4.874;2023-04-03T15:23:28;2.30;;;2.10;;
10934;SDS011;5520;45.752;4.874;2023-04-03T15:25:56;4.00;;;2.77;;
10934;SDS011;5520;45.752;4.874;2023-04-03T15:28:27;3.27;;;2.40;;
10934;SDS011;5520;45.752;4.874;2023-04-03T15:30:56;2.33;;;2.13;;
10934;SDS011;5520;45.752;4.874;2023-04-03T15:33:24;3.17;;;2.87;;
10934;SDS011;5520;45.752;4.874;2023-04-03T15:35:52;3.00;;;2.10;;
10934;SDS011;5520;45.752;4.874;2023-04-03T15:38:33;2.67;;;2.47;;
10934;SDS011;5520;45.752;4.874;2023-04-03T15:41:01;2.53;;;1.93;;